sensor_id;sensor_type;location;lat;lon;timestamp;P1;durP1;ratioP1;P2;durP2;ratioP2
60169;SDS011;46042;49.444;6.862;2023-02-15T00:01:49;13.77;;;7.40;;
60169;SDS011;46042;49.444;6.862;2023-02-15T00:04:17;16.90;;;8.07;;
60169;SDS011;46042;49.444;6.862;2023-02-15T00:06:46;13.10;;;6.83;;
60169;SDS011;46042;49.444;6.862;2023-02-15T00:09:14;11.23;;;6.63;;
60169;SDS011;46042;49.444;6.862;2023-02-15T00:11:40;13.37;;;7.47;;
60169;SDS011;46042;49.444;6.862;2023-02-15T00:14:11;11.43;;;6.30;;
60169;SDS011;46042;49.444;6.862;2023-02-15T00:16:41;10.83;;;5.77;;
60169;SDS011;46042;49.444;6.862;2023-02-15T00:19:10;13.23;;;7.60;;
60169;SDS011;46042;49.444;6.862;2023-02-15T00:21:39;13.90;;;8.40;;
60169;SDS011;46042;49.444;6.862;2023-02-15T00:24:07;14.37;;;8.80;;
60169;SDS011;46042;49.444;6.862;2023-02-15T00:26:37;14.27;;;7.63;;
60169;SDS011;46042;49.444;6.862;2023-02-15T00:29:05;14.47;;;7.30;;
60169;SDS011;46042;49.444;6.862;2023-02-15T00:31:32;14.30;;;7.33;;
60169;SDS011;46042;49.444;6.862;2023-02-15T00:34:13;12.37;;;6.90;;
60169;SDS011;46042;49.444;6.862;2023-02-15T00:36:42;13.53;;;6.83;;
60169;SDS011;46042;49.444;6.862;2023-02-15T00:39:09;10.80;;;6.67;;
60169;SDS011;46042;49.444;6.862;2023-02-15T00:41:37;12.80;;;6.83;;
60169;SDS011;46042;49.444;6.862;2023-02-15T00:44:03;13.17;;;7.63;;
60169;SDS011;46042;49.444;6.862;2023-02-15T00:46:31;11.97;;;6.90;;
60169;SDS011;46042;49.444;6.862;2023-02-15T00:48:58;13.13;;;6.87;;
60169;SDS011;46042;49.444;6.862;2023-02-15T00:51:25;12.53;;;6.70;;
60169;SDS011;46042;49.444;6.862;2023-02-15T00:53:52;10.90;;;6.50;;
60169;SDS011;46042;49.444;6.862;2023-02-15T00:56:19;9.93;;;6.20;;
60169;SDS011;46042;49.444;6.862;2023-02-15T00:58:46;14.93;;;8.13;;
60169;SDS011;46042;49.444;6.862;2023-02-15T01:01:15;15.50;;;8.70;;
60169;SDS011;46042;49.444;6.862;2023-02-15T01:06:10;31.20;;;8.43;;
60169;SDS011;46042;49.444;6.862;2023-02-15T01:08:37;15.13;;;8.23;;
60169;SDS011;46042;49.444;6.862;2023-02-15T01:11:05;17.73;;;9.30;;
60169;SDS011;46042;49.444;6.862;2023-02-15T01:13:34;11.80;;;7.07;;
60169;SDS011;46042;49.444;6.862;2023-02-15T01:16:01;11.90;;;6.63;;
60169;SDS011;46042;49.444;6.862;2023-02-15T01:18:29;13.10;;;7.50;;
60169;SDS011;46042;49.444;6.862;2023-02-15T01:20:56;12.70;;;6.30;;
60169;SDS011;46042;49.444;6.862;2023-02-15T01:23:24;11.77;;;6.67;;
60169;SDS011;46042;49.444;6.862;2023-02-15T01:25:51;12.40;;;6.60;;
60169;SDS011;46042;49.444;6.862;2023-02-15T01:28:18;12.93;;;6.47;;
60169;SDS011;46042;49.444;6.862;2023-02-15T01:30:44;10.87;;;6.07;;
60169;SDS011;46042;49.444;6.862;2023-02-15T01:33:11;11.03;;;5.70;;
60169;SDS011;46042;49.444;6.862;2023-02-15T01:35:45;10.97;;;5.70;;
60169;SDS011;46042;49.444;6.862;2023-02-15T01:38:14;11.40;;;5.13;;
60169;SDS011;46042;49.444;6.862;2023-02-15T01:40:41;11.17;;;6.30;;
60169;SDS011;46042;49.444;6.862;2023-02-15T01:43:11;11.37;;;5.43;;
60169;SDS011;46042;49.444;6.862;2023-02-15T01:45:38;13.40;;;6.35;;
60169;SDS011;46042;49.444;6.862;2023-02-15T01:48:22;7.83;;;4.80;;
60169;SDS011;46042;49.444;6.862;2023-02-15T01:50:58;8.40;;;5.33;;
60169;SDS011;46042;49.444;6.862;2023-02-15T01:53:31;10.80;;;6.07;;
60169;SDS011;46042;49.444;6.862;2023-02-15T01:58:29;9.53;;;5.33;;
60169;SDS011;46042;49.444;6.862;2023-02-15T02:00:59;8.50;;;4.63;;
60169;SDS011;46042;49.444;6.862;2023-02-15T02:03:32;9.27;;;5.43;;
60169;SDS011;46042;49.444;6.862;2023-02-15T02:06:09;10.47;;;5.70;;
60169;SDS011;46042;49.444;6.862;2023-02-15T02:08:36;9.33;;;5.23;;
60169;SDS011;46042;49.444;6.862;2023-02-15T02:11:08;12.10;;;6.13;;
60169;SDS011;46042;49.444;6.862;2023-02-15T02:13:36;9.90;;;5.63;;
60169;SDS011;46042;49.444;6.862;2023-02-15T02:16:14;7.20;;;5.20;;
60169;SDS011;46042;49.444;6.862;2023-02-15T02:22:00;8.83;;;5.37;;
60169;SDS011;46042;49.444;6.862;2023-02-15T02:30:04;9.33;;;4.80;;
60169;SDS011;46042;49.444;6.862;2023-02-15T02:43:20;7.70;;;4.90;;
60169;SDS011;46042;49.444;6.862;2023-02-15T02:46:13;8.63;;;5.10;;
60169;SDS011;46042;49.444;6.862;2023-02-15T02:48:50;15.10;;;7.43;;
60169;SDS011;46042;49.444;6.862;2023-02-15T02:51:18;11.80;;;6.20;;
60169;SDS011;46042;49.444;6.862;2023-02-15T02:53:49;11.13;;;5.97;;
60169;SDS011;46042;49.444;6.862;2023-02-15T02:59:02;11.07;;;6.13;;
60169;SDS011;46042;49.444;6.862;2023-02-15T03:01:49;11.73;;;4.87;;
60169;SDS011;46042;49.444;6.862;2023-02-15T03:04:26;10.60;;;5.77;;
60169;SDS011;46042;49.444;6.862;2023-02-15T03:06:58;8.83;;;5.47;;
60169;SDS011;46042;49.444;6.862;2023-02-15T03:09:34;8.97;;;5.17;;
60169;SDS011;46042;49.444;6.862;2023-02-15T03:14:40;8.60;;;4.20;;
60169;SDS011;46042;49.444;6.862;2023-02-15T03:17:08;7.30;;;4.03;;
60169;SDS011;46042;49.444;6.862;2023-02-15T03:19:38;9.67;;;5.03;;
60169;SDS011;46042;49.444;6.862;2023-02-15T03:22:06;11.03;;;5.67;;
60169;SDS011;46042;49.444;6.862;2023-02-15T03:24:49;7.90;;;5.00;;
60169;SDS011;46042;49.444;6.862;2023-02-15T03:27:31;8.53;;;5.17;;
60169;SDS011;46042;49.444;6.862;2023-02-15T03:30:05;5.97;;;3.90;;
60169;SDS011;46042;49.444;6.862;2023-02-15T03:32:33;11.77;;;6.17;;
60169;SDS011;46042;49.444;6.862;2023-02-15T03:35:01;13.40;;;6.67;;
60169;SDS011;46042;49.444;6.862;2023-02-15T03:40:26;7.40;;;4.33;;
60169;SDS011;46042;49.444;6.862;2023-02-15T03:48:55;10.23;;;5.00;;
60169;SDS011;46042;49.444;6.862;2023-02-15T03:51:28;10.97;;;5.77;;
60169;SDS011;46042;49.444;6.862;2023-02-15T03:54:02;9.43;;;5.43;;
60169;SDS011;46042;49.444;6.862;2023-02-15T03:56:36;8.67;;;5.10;;
60169;SDS011;46042;49.444;6.862;2023-02-15T03:59:04;10.40;;;5.03;;
60169;SDS011;46042;49.444;6.862;2023-02-15T04:01:56;9.43;;;4.57;;
60169;SDS011;46042;49.444;6.862;2023-02-15T04:04:36;8.90;;;4.50;;
60169;SDS011;46042;49.444;6.862;2023-02-15T04:07:06;10.17;;;5.03;;
60169;SDS011;46042;49.444;6.862;2023-02-15T04:09:34;7.13;;;4.27;;
60169;SDS011;46042;49.444;6.862;2023-02-15T04:12:19;9.37;;;5.57;;
60169;SDS011;46042;49.444;6.862;2023-02-15T04:14:46;12.70;;;5.67;;
60169;SDS011;46042;49.444;6.862;2023-02-15T04:17:31;11.83;;;5.77;;
60169;SDS011;46042;49.444;6.862;2023-02-15T04:19:58;13.23;;;6.27;;
60169;SDS011;46042;49.444;6.862;2023-02-15T04:22:44;59.50;;;9.43;;
60169;SDS011;46042;49.444;6.862;2023-02-15T04:25:29;22.37;;;5.97;;
60169;SDS011;46042;49.444;6.862;2023-02-15T04:27:55;19.33;;;5.57;;
60169;SDS011;46042;49.444;6.862;2023-02-15T04:30:23;11.03;;;6.10;;
60169;SDS011;46042;49.444;6.862;2023-02-15T04:32:51;9.03;;;5.30;;
60169;SDS011;46042;49.444;6.862;2023-02-15T04:35:17;9.13;;;5.03;;
60169;SDS011;46042;49.444;6.862;2023-02-15T04:37:44;10.30;;;6.13;;
60169;SDS011;46042;49.444;6.862;2023-02-15T04:40:12;11.13;;;5.07;;
60169;SDS011;46042;49.444;6.862;2023-02-15T04:42:42;42.92;;;6.57;;
60169;SDS011;46042;49.444;6.862;2023-02-15T04:45:08;15.67;;;5.33;;
60169;SDS011;46042;49.444;6.862;2023-02-15T04:47:35;13.17;;;7.50;;
60169;SDS011;46042;49.444;6.862;2023-02-15T04:50:01;16.50;;;5.27;;
60169;SDS011;46042;49.444;6.862;2023-02-15T04:52:29;11.03;;;5.60;;
60169;SDS011;46042;49.444;6.862;2023-02-15T04:54:55;9.93;;;5.23;;
60169;SDS011;46042;49.444;6.862;2023-02-15T04:57:22;10.83;;;5.07;;
60169;SDS011;46042;49.444;6.862;2023-02-15T04:59:49;75.20;;;10.17;;
60169;SDS011;46042;49.444;6.862;2023-02-15T05:02:15;8.27;;;4.70;;
60169;SDS011;46042;49.444;6.862;2023-02-15T05:04:42;7.90;;;4.93;;
60169;SDS011;46042;49.444;6.862;2023-02-15T05:07:08;9.87;;;4.37;;
60169;SDS011;46042;49.444;6.862;2023-02-15T05:09:35;21.47;;;6.00;;
60169;SDS011;46042;49.444;6.862;2023-02-15T05:12:02;8.93;;;5.43;;
60169;SDS011;46042;49.444;6.862;2023-02-15T05:14:28;8.67;;;5.27;;
60169;SDS011;46042;49.444;6.862;2023-02-15T05:16:55;32.13;;;6.43;;
60169;SDS011;46042;49.444;6.862;2023-02-15T05:19:22;9.43;;;5.17;;
60169;SDS011;46042;49.444;6.862;2023-02-15T05:21:50;11.17;;;6.03;;
60169;SDS011;46042;49.444;6.862;2023-02-15T05:24:17;10.13;;;6.23;;
60169;SDS011;46042;49.444;6.862;2023-02-15T05:27:02;8.37;;;5.13;;
60169;SDS011;46042;49.444;6.862;2023-02-15T05:29:48;9.27;;;4.90;;
60169;SDS011;46042;49.444;6.862;2023-02-15T05:32:15;11.30;;;4.40;;
60169;SDS011;46042;49.444;6.862;2023-02-15T05:34:41;8.40;;;5.27;;
60169;SDS011;46042;49.444;6.862;2023-02-15T05:37:08;13.67;;;7.27;;
60169;SDS011;46042;49.444;6.862;2023-02-15T05:39:35;25.47;;;5.83;;
60169;SDS011;46042;49.444;6.862;2023-02-15T05:42:01;31.00;;;6.67;;
60169;SDS011;46042;49.444;6.862;2023-02-15T05:44:28;9.30;;;5.27;;
60169;SDS011;46042;49.444;6.862;2023-02-15T05:46:55;10.33;;;5.13;;
60169;SDS011;46042;49.444;6.862;2023-02-15T05:49:22;14.77;;;6.33;;
60169;SDS011;46042;49.444;6.862;2023-02-15T05:51:49;9.30;;;5.33;;
60169;SDS011;46042;49.444;6.862;2023-02-15T05:54:15;10.23;;;5.80;;
60169;SDS011;46042;49.444;6.862;2023-02-15T05:56:42;13.53;;;6.27;;
60169;SDS011;46042;49.444;6.862;2023-02-15T05:59:08;11.30;;;5.57;;
60169;SDS011;46042;49.444;6.862;2023-02-15T06:01:35;11.57;;;5.97;;
60169;SDS011;46042;49.444;6.862;2023-02-15T06:04:02;9.03;;;5.33;;
60169;SDS011;46042;49.444;6.862;2023-02-15T06:06:28;8.83;;;4.83;;
60169;SDS011;46042;49.444;6.862;2023-02-15T06:08:55;11.03;;;5.67;;
60169;SDS011;46042;49.444;6.862;2023-02-15T06:11:22;10.57;;;5.23;;
60169;SDS011;46042;49.444;6.862;2023-02-15T06:13:48;7.77;;;4.27;;
60169;SDS011;46042;49.444;6.862;2023-02-15T06:16:15;8.47;;;4.60;;
60169;SDS011;46042;49.444;6.862;2023-02-15T06:18:42;9.53;;;5.03;;
60169;SDS011;46042;49.444;6.862;2023-02-15T06:21:09;22.67;;;5.10;;
60169;SDS011;46042;49.444;6.862;2023-02-15T06:23:35;43.77;;;5.93;;
60169;SDS011;46042;49.444;6.862;2023-02-15T06:26:02;8.43;;;4.10;;
60169;SDS011;46042;49.444;6.862;2023-02-15T06:28:29;9.27;;;5.17;;
60169;SDS011;46042;49.444;6.862;2023-02-15T06:30:56;10.57;;;5.40;;
60169;SDS011;46042;49.444;6.862;2023-02-15T06:33:23;10.63;;;4.67;;
60169;SDS011;46042;49.444;6.862;2023-02-15T06:35:49;11.43;;;5.73;;
60169;SDS011;46042;49.444;6.862;2023-02-15T06:38:16;10.20;;;5.13;;
60169;SDS011;46042;49.444;6.862;2023-02-15T06:40:43;9.03;;;4.90;;
60169;SDS011;46042;49.444;6.862;2023-02-15T06:43:10;8.33;;;4.60;;
60169;SDS011;46042;49.444;6.862;2023-02-15T06:45:36;10.20;;;4.93;;
60169;SDS011;46042;49.444;6.862;2023-02-15T06:48:03;9.03;;;4.60;;
60169;SDS011;46042;49.444;6.862;2023-02-15T06:50:33;20.17;;;5.50;;
60169;SDS011;46042;49.444;6.862;2023-02-15T06:53:00;39.47;;;5.73;;
60169;SDS011;46042;49.444;6.862;2023-02-15T06:55:26;46.97;;;6.53;;
60169;SDS011;46042;49.444;6.862;2023-02-15T06:57:53;12.33;;;6.20;;
60169;SDS011;46042;49.444;6.862;2023-02-15T07:00:20;37.47;;;5.27;;
60169;SDS011;46042;49.444;6.862;2023-02-15T07:02:57;8.67;;;5.60;;
60169;SDS011;46042;49.444;6.862;2023-02-15T07:05:25;12.00;;;5.30;;
60169;SDS011;46042;49.444;6.862;2023-02-15T07:07:57;7.13;;;4.47;;
60169;SDS011;46042;49.444;6.862;2023-02-15T07:10:24;9.70;;;5.47;;
60169;SDS011;46042;49.444;6.862;2023-02-15T07:12:52;62.87;;;7.00;;
60169;SDS011;46042;49.444;6.862;2023-02-15T07:15:19;9.77;;;5.30;;
60169;SDS011;46042;49.444;6.862;2023-02-15T07:17:48;19.90;;;5.57;;
60169;SDS011;46042;49.444;6.862;2023-02-15T07:20:19;25.57;;;4.90;;
60169;SDS011;46042;49.444;6.862;2023-02-15T07:22:47;15.77;;;5.53;;
60169;SDS011;46042;49.444;6.862;2023-02-15T07:25:15;30.67;;;5.50;;
60169;SDS011;46042;49.444;6.862;2023-02-15T07:27:42;25.37;;;5.53;;
60169;SDS011;46042;49.444;6.862;2023-02-15T07:30:10;8.47;;;5.27;;
60169;SDS011;46042;49.444;6.862;2023-02-15T07:32:39;11.83;;;5.83;;
60169;SDS011;46042;49.444;6.862;2023-02-15T07:35:27;49.47;;;7.23;;
60169;SDS011;46042;49.444;6.862;2023-02-15T07:37:53;8.90;;;4.80;;
60169;SDS011;46042;49.444;6.862;2023-02-15T07:40:20;16.43;;;5.37;;
60169;SDS011;46042;49.444;6.862;2023-02-15T07:42:49;8.57;;;5.27;;
60169;SDS011;46042;49.444;6.862;2023-02-15T07:45:21;16.53;;;5.30;;
60169;SDS011;46042;49.444;6.862;2023-02-15T07:47:48;11.73;;;4.90;;
60169;SDS011;46042;49.444;6.862;2023-02-15T07:50:15;24.77;;;8.10;;
60169;SDS011;46042;49.444;6.862;2023-02-15T07:52:41;8.23;;;4.43;;
60169;SDS011;46042;49.444;6.862;2023-02-15T07:55:08;11.83;;;7.13;;
60169;SDS011;46042;49.444;6.862;2023-02-15T07:57:41;11.17;;;5.93;;
60169;SDS011;46042;49.444;6.862;2023-02-15T08:00:15;13.20;;;4.80;;
60169;SDS011;46042;49.444;6.862;2023-02-15T08:02:54;38.03;;;5.23;;
60169;SDS011;46042;49.444;6.862;2023-02-15T08:05:41;10.00;;;4.63;;
60169;SDS011;46042;49.444;6.862;2023-02-15T08:08:09;7.00;;;4.40;;
60169;SDS011;46042;49.444;6.862;2023-02-15T08:11:06;60.37;;;5.77;;
60169;SDS011;46042;49.444;6.862;2023-02-15T08:14:12;8.73;;;4.47;;
60169;SDS011;46042;49.444;6.862;2023-02-15T08:16:41;9.70;;;5.17;;
60169;SDS011;46042;49.444;6.862;2023-02-15T08:21:43;9.77;;;4.70;;
60169;SDS011;46042;49.444;6.862;2023-02-15T08:24:12;8.23;;;5.03;;
60169;SDS011;46042;49.444;6.862;2023-02-15T08:26:40;24.47;;;4.43;;
60169;SDS011;46042;49.444;6.862;2023-02-15T08:29:09;8.37;;;4.43;;
60169;SDS011;46042;49.444;6.862;2023-02-15T08:31:36;8.53;;;4.87;;
60169;SDS011;46042;49.444;6.862;2023-02-15T08:34:04;10.60;;;4.90;;
60169;SDS011;46042;49.444;6.862;2023-02-15T08:36:31;9.83;;;5.00;;
60169;SDS011;46042;49.444;6.862;2023-02-15T08:38:58;14.33;;;4.90;;
60169;SDS011;46042;49.444;6.862;2023-02-15T08:41:30;8.77;;;5.43;;
60169;SDS011;46042;49.444;6.862;2023-02-15T08:43:59;10.00;;;4.93;;
60169;SDS011;46042;49.444;6.862;2023-02-15T08:46:28;35.67;;;5.97;;
60169;SDS011;46042;49.444;6.862;2023-02-15T08:48:56;16.47;;;5.13;;
60169;SDS011;46042;49.444;6.862;2023-02-15T08:51:28;11.50;;;5.50;;
60169;SDS011;46042;49.444;6.862;2023-02-15T08:53:57;10.57;;;5.53;;
60169;SDS011;46042;49.444;6.862;2023-02-15T08:56:27;10.07;;;4.90;;
60169;SDS011;46042;49.444;6.862;2023-02-15T08:58:56;10.00;;;5.37;;
60169;SDS011;46042;49.444;6.862;2023-02-15T09:01:23;9.93;;;5.97;;
60169;SDS011;46042;49.444;6.862;2023-02-15T09:03:55;12.43;;;5.90;;
60169;SDS011;46042;49.444;6.862;2023-02-15T09:06:23;12.35;;;6.03;;
60169;SDS011;46042;49.444;6.862;2023-02-15T09:08:50;9.00;;;5.43;;
60169;SDS011;46042;49.444;6.862;2023-02-15T09:11:18;7.87;;;4.47;;
60169;SDS011;46042;49.444;6.862;2023-02-15T09:13:51;21.57;;;6.90;;
60169;SDS011;46042;49.444;6.862;2023-02-15T09:16:29;9.27;;;5.30;;
60169;SDS011;46042;49.444;6.862;2023-02-15T09:18:58;11.30;;;5.70;;
60169;SDS011;46042;49.444;6.862;2023-02-15T09:21:28;8.57;;;4.90;;
60169;SDS011;46042;49.444;6.862;2023-02-15T09:23:55;9.83;;;5.43;;
60169;SDS011;46042;49.444;6.862;2023-02-15T09:26:27;10.13;;;5.50;;
60169;SDS011;46042;49.444;6.862;2023-02-15T09:28:57;11.00;;;5.77;;
60169;SDS011;46042;49.444;6.862;2023-02-15T09:31:28;11.40;;;5.78;;
60169;SDS011;46042;49.444;6.862;2023-02-15T09:33:57;9.37;;;5.03;;
60169;SDS011;46042;49.444;6.862;2023-02-15T09:36:25;15.63;;;6.07;;
60169;SDS011;46042;49.444;6.862;2023-02-15T09:47:44;10.77;;;5.73;;
60169;SDS011;46042;49.444;6.862;2023-02-15T10:10:23;12.57;;;6.10;;
60169;SDS011;46042;49.444;6.862;2023-02-15T10:23:58;13.83;;;7.63;;
60169;SDS011;46042;49.444;6.862;2023-02-15T10:26:40;11.03;;;6.30;;
60169;SDS011;46042;49.444;6.862;2023-02-15T10:31:51;15.32;;;7.50;;
60169;SDS011;46042;49.444;6.862;2023-02-15T10:34:43;12.40;;;7.20;;
60169;SDS011;46042;49.444;6.862;2023-02-15T10:37:37;9.80;;;5.13;;
60169;SDS011;46042;49.444;6.862;2023-02-15T10:40:15;11.50;;;6.45;;
60169;SDS011;46042;49.444;6.862;2023-02-15T10:43:07;11.48;;;6.15;;
60169;SDS011;46042;49.444;6.862;2023-02-15T10:54:11;13.00;;;7.00;;
60169;SDS011;46042;49.444;6.862;2023-02-15T10:59:32;14.70;;;6.50;;
60169;SDS011;46042;49.444;6.862;2023-02-15T11:05:07;13.18;;;6.72;;
60169;SDS011;46042;49.444;6.862;2023-02-15T11:07:49;14.77;;;8.20;;
60169;SDS011;46042;49.444;6.862;2023-02-15T11:13:10;11.30;;;6.75;;
60169;SDS011;46042;49.444;6.862;2023-02-15T11:18:36;16.75;;;8.48;;
60169;SDS011;46042;49.444;6.862;2023-02-15T11:21:10;12.40;;;7.60;;
60169;SDS011;46042;49.444;6.862;2023-02-15T11:23:42;13.82;;;7.22;;
60169;SDS011;46042;49.444;6.862;2023-02-15T11:26:33;17.42;;;7.97;;
60169;SDS011;46042;49.444;6.862;2023-02-15T11:31:43;14.07;;;7.97;;
60169;SDS011;46042;49.444;6.862;2023-02-15T11:34:23;11.80;;;7.80;;
60169;SDS011;46042;49.444;6.862;2023-02-15T11:37:11;13.60;;;7.78;;
60169;SDS011;46042;49.444;6.862;2023-02-15T11:39:44;11.90;;;7.68;;
60169;SDS011;46042;49.444;6.862;2023-02-15T11:42:13;13.15;;;8.13;;
60169;SDS011;46042;49.444;6.862;2023-02-15T11:44:46;13.52;;;8.18;;
60169;SDS011;46042;49.444;6.862;2023-02-15T11:47:17;15.48;;;8.52;;
60169;SDS011;46042;49.444;6.862;2023-02-15T11:49:44;14.45;;;8.65;;
60169;SDS011;46042;49.444;6.862;2023-02-15T11:52:12;12.80;;;8.43;;
60169;SDS011;46042;49.444;6.862;2023-02-15T11:54:41;15.00;;;9.27;;
60169;SDS011;46042;49.444;6.862;2023-02-15T11:57:26;11.77;;;7.85;;
60169;SDS011;46042;49.444;6.862;2023-02-15T12:00:01;14.35;;;8.50;;
60169;SDS011;46042;49.444;6.862;2023-02-15T12:02:33;16.67;;;9.13;;
60169;SDS011;46042;49.444;6.862;2023-02-15T12:05:15;12.85;;;8.57;;
60169;SDS011;46042;49.444;6.862;2023-02-15T12:08:00;13.07;;;8.43;;
60169;SDS011;46042;49.444;6.862;2023-02-15T12:10:36;13.05;;;8.10;;
60169;SDS011;46042;49.444;6.862;2023-02-15T12:13:16;21.40;;;9.50;;
60169;SDS011;46042;49.444;6.862;2023-02-15T12:15:45;15.43;;;7.70;;
60169;SDS011;46042;49.444;6.862;2023-02-15T12:21:07;18.88;;;8.50;;
60169;SDS011;46042;49.444;6.862;2023-02-15T12:23:57;13.68;;;8.32;;
60169;SDS011;46042;49.444;6.862;2023-02-15T12:26:32;13.85;;;9.60;;
60169;SDS011;46042;49.444;6.862;2023-02-15T12:29:05;14.25;;;9.00;;
60169;SDS011;46042;49.444;6.862;2023-02-15T12:31:40;12.27;;;8.40;;
60169;SDS011;46042;49.444;6.862;2023-02-15T12:34:24;14.07;;;9.60;;
60169;SDS011;46042;49.444;6.862;2023-02-15T12:36:56;11.27;;;8.25;;
60169;SDS011;46042;49.444;6.862;2023-02-15T12:39:30;13.93;;;8.40;;
60169;SDS011;46042;49.444;6.862;2023-02-15T12:44:30;17.30;;;9.65;;
60169;SDS011;46042;49.444;6.862;2023-02-15T12:47:00;13.32;;;9.55;;
60169;SDS011;46042;49.444;6.862;2023-02-15T12:49:44;12.32;;;8.27;;
60169;SDS011;46042;49.444;6.862;2023-02-15T12:52:29;17.23;;;9.25;;
60169;SDS011;46042;49.444;6.862;2023-02-15T12:54:58;14.48;;;9.88;;
60169;SDS011;46042;49.444;6.862;2023-02-15T12:57:42;16.65;;;9.73;;
60169;SDS011;46042;49.444;6.862;2023-02-15T13:02:48;16.23;;;9.88;;
60169;SDS011;46042;49.444;6.862;2023-02-15T13:10:52;19.40;;;10.68;;
60169;SDS011;46042;49.444;6.862;2023-02-15T13:13:19;15.15;;;9.88;;
60169;SDS011;46042;49.444;6.862;2023-02-15T13:15:49;16.63;;;10.70;;
60169;SDS011;46042;49.444;6.862;2023-02-15T13:18:31;16.42;;;9.43;;
60169;SDS011;46042;49.444;6.862;2023-02-15T13:23:44;16.30;;;10.40;;
60169;SDS011;46042;49.444;6.862;2023-02-15T13:26:15;18.02;;;10.32;;
60169;SDS011;46042;49.444;6.862;2023-02-15T13:28:47;16.40;;;10.30;;
60169;SDS011;46042;49.444;6.862;2023-02-15T13:31:18;17.98;;;9.52;;
60169;SDS011;46042;49.444;6.862;2023-02-15T13:33:58;18.65;;;11.20;;
60169;SDS011;46042;49.444;6.862;2023-02-15T13:39:26;19.50;;;11.32;;
60169;SDS011;46042;49.444;6.862;2023-02-15T13:44:57;20.83;;;10.27;;
60169;SDS011;46042;49.444;6.862;2023-02-15T13:56:11;25.13;;;14.82;;
60169;SDS011;46042;49.444;6.862;2023-02-15T13:59:03;19.75;;;12.95;;
60169;SDS011;46042;49.444;6.862;2023-02-15T14:09:48;17.65;;;11.63;;
60169;SDS011;46042;49.444;6.862;2023-02-15T14:12:27;15.10;;;9.73;;
60169;SDS011;46042;49.444;6.862;2023-02-15T14:23:16;23.23;;;14.75;;
60169;SDS011;46042;49.444;6.862;2023-02-15T14:32:08;16.40;;;11.13;;
60169;SDS011;46042;49.444;6.862;2023-02-15T14:34:44;18.92;;;11.38;;
60169;SDS011;46042;49.444;6.862;2023-02-15T14:37:17;16.45;;;11.13;;
60169;SDS011;46042;49.444;6.862;2023-02-15T14:43:24;19.13;;;10.98;;
60169;SDS011;46042;49.444;6.862;2023-02-15T14:46:03;24.02;;;14.40;;
60169;SDS011;46042;49.444;6.862;2023-02-15T15:05:20;21.13;;;12.18;;
60169;SDS011;46042;49.444;6.862;2023-02-15T15:07:51;17.10;;;9.88;;
60169;SDS011;46042;49.444;6.862;2023-02-15T15:12:51;18.10;;;10.73;;
60169;SDS011;46042;49.444;6.862;2023-02-15T15:18:02;21.00;;;12.65;;
60169;SDS011;46042;49.444;6.862;2023-02-15T15:31:04;20.30;;;12.60;;
60169;SDS011;46042;49.444;6.862;2023-02-15T15:39:21;17.85;;;10.88;;
60169;SDS011;46042;49.444;6.862;2023-02-15T15:41:53;18.58;;;10.93;;
60169;SDS011;46042;49.444;6.862;2023-02-15T15:44:39;17.63;;;10.35;;
60169;SDS011;46042;49.444;6.862;2023-02-15T15:50:23;19.05;;;10.55;;
60169;SDS011;46042;49.444;6.862;2023-02-15T15:52:54;22.45;;;10.65;;
60169;SDS011;46042;49.444;6.862;2023-02-15T15:55:25;19.75;;;9.93;;
60169;SDS011;46042;49.444;6.862;2023-02-15T15:57:59;24.10;;;10.93;;
60169;SDS011;46042;49.444;6.862;2023-02-15T16:00:35;26.58;;;11.15;;
60169;SDS011;46042;49.444;6.862;2023-02-15T16:03:15;22.63;;;11.07;;
60169;SDS011;46042;49.444;6.862;2023-02-15T16:05:46;22.33;;;11.48;;
60169;SDS011;46042;49.444;6.862;2023-02-15T16:08:35;21.80;;;11.40;;
60169;SDS011;46042;49.444;6.862;2023-02-15T16:11:14;21.88;;;11.70;;
60169;SDS011;46042;49.444;6.862;2023-02-15T16:16:13;18.08;;;10.18;;
60169;SDS011;46042;49.444;6.862;2023-02-15T16:18:47;19.88;;;10.48;;
60169;SDS011;46042;49.444;6.862;2023-02-15T16:21:22;20.05;;;9.85;;
60169;SDS011;46042;49.444;6.862;2023-02-15T16:29:18;21.65;;;10.82;;
60169;SDS011;46042;49.444;6.862;2023-02-15T16:32:00;23.10;;;10.20;;
60169;SDS011;46042;49.444;6.862;2023-02-15T16:34:28;18.10;;;10.30;;
60169;SDS011;46042;49.444;6.862;2023-02-15T16:37:17;22.30;;;12.13;;
60169;SDS011;46042;49.444;6.862;2023-02-15T16:39:45;17.27;;;9.75;;
60169;SDS011;46042;49.444;6.862;2023-02-15T16:42:14;22.50;;;10.80;;
60169;SDS011;46042;49.444;6.862;2023-02-15T16:44:43;24.73;;;11.07;;
60169;SDS011;46042;49.444;6.862;2023-02-15T16:47:17;19.80;;;10.90;;
60169;SDS011;46042;49.444;6.862;2023-02-15T16:49:48;21.33;;;11.05;;
60169;SDS011;46042;49.444;6.862;2023-02-15T16:52:23;19.38;;;11.38;;
60169;SDS011;46042;49.444;6.862;2023-02-15T16:54:55;18.48;;;11.15;;
60169;SDS011;46042;49.444;6.862;2023-02-15T16:57:25;22.60;;;10.77;;
60169;SDS011;46042;49.444;6.862;2023-02-15T16:59:58;17.02;;;9.88;;
60169;SDS011;46042;49.444;6.862;2023-02-15T17:02:32;19.98;;;10.05;;
60169;SDS011;46042;49.444;6.862;2023-02-15T17:05:19;18.65;;;10.27;;
60169;SDS011;46042;49.444;6.862;2023-02-15T17:10:30;18.20;;;9.70;;
60169;SDS011;46042;49.444;6.862;2023-02-15T17:13:03;17.10;;;9.83;;
60169;SDS011;46042;49.444;6.862;2023-02-15T17:15:36;19.00;;;10.02;;
60169;SDS011;46042;49.444;6.862;2023-02-15T17:20:38;18.67;;;9.43;;
60169;SDS011;46042;49.444;6.862;2023-02-15T17:26:12;19.70;;;9.07;;
60169;SDS011;46042;49.444;6.862;2023-02-15T17:29:01;18.92;;;10.65;;
60169;SDS011;46042;49.444;6.862;2023-02-15T17:31:30;16.80;;;8.70;;
60169;SDS011;46042;49.444;6.862;2023-02-15T17:33:59;19.23;;;9.70;;
60169;SDS011;46042;49.444;6.862;2023-02-15T17:36:27;24.60;;;11.02;;
60169;SDS011;46042;49.444;6.862;2023-02-15T17:41:26;24.45;;;12.48;;
60169;SDS011;46042;49.444;6.862;2023-02-15T17:43:55;28.58;;;14.45;;
60169;SDS011;46042;49.444;6.862;2023-02-15T17:46:21;25.60;;;11.63;;
60169;SDS011;46042;49.444;6.862;2023-02-15T17:48:50;21.38;;;11.45;;
60169;SDS011;46042;49.444;6.862;2023-02-15T17:51:18;24.60;;;10.43;;
60169;SDS011;46042;49.444;6.862;2023-02-15T17:53:46;20.05;;;10.32;;
60169;SDS011;46042;49.444;6.862;2023-02-15T17:56:32;22.85;;;9.57;;
60169;SDS011;46042;49.444;6.862;2023-02-15T17:59:00;21.77;;;10.50;;
60169;SDS011;46042;49.444;6.862;2023-02-15T18:01:26;17.73;;;10.02;;
60169;SDS011;46042;49.444;6.862;2023-02-15T18:04:12;18.88;;;8.93;;
60169;SDS011;46042;49.444;6.862;2023-02-15T18:06:59;16.10;;;9.45;;
60169;SDS011;46042;49.444;6.862;2023-02-15T18:09:44;16.52;;;9.07;;
60169;SDS011;46042;49.444;6.862;2023-02-15T18:12:30;13.50;;;7.85;;
60169;SDS011;46042;49.444;6.862;2023-02-15T18:14:59;21.50;;;8.90;;
60169;SDS011;46042;49.444;6.862;2023-02-15T18:17:34;25.60;;;13.38;;
60169;SDS011;46042;49.444;6.862;2023-02-15T18:20:05;21.73;;;11.80;;
60169;SDS011;46042;49.444;6.862;2023-02-15T18:22:36;17.67;;;10.32;;
60169;SDS011;46042;49.444;6.862;2023-02-15T18:25:03;24.75;;;12.68;;
60169;SDS011;46042;49.444;6.862;2023-02-15T18:27:29;19.05;;;10.48;;
60169;SDS011;46042;49.444;6.862;2023-02-15T18:29:56;20.63;;;11.98;;
60169;SDS011;46042;49.444;6.862;2023-02-15T18:32:31;25.75;;;14.73;;
60169;SDS011;46042;49.444;6.862;2023-02-15T18:35:01;25.60;;;13.68;;
60169;SDS011;46042;49.444;6.862;2023-02-15T18:37:30;26.35;;;15.00;;
60169;SDS011;46042;49.444;6.862;2023-02-15T18:40:00;25.80;;;14.23;;
60169;SDS011;46042;49.444;6.862;2023-02-15T18:42:30;24.90;;;13.43;;
60169;SDS011;46042;49.444;6.862;2023-02-15T18:47:40;23.70;;;13.68;;
60169;SDS011;46042;49.444;6.862;2023-02-15T18:50:07;26.83;;;13.13;;